Parsonsfield, Maine
Current Conditions -  °F | °C
As of 2:54 PM on Thursday 30 Oct 2014 (Local Time) from KIZG Reporting Station
Broken Clouds Broken Clouds  
Wind Chill: 54°   Ceiling: 5000
Heat Index: 54°   Visibility: 10mi
Dew Point: 34°   Wind: 8mph
Humidity: 47%   Direction: 310°NW
Pressure: 29.9"   Gusts: NA
Location:  43.73°N, 70.93°W
Report Text: KIZG 301854Z AUTO 31007KT 10SM BKN050 12/01 A2990 RMK AO2 SLP127 T01220011
Loading
Personal Weather Stations






























Interactive Weather Map
Tropical Storm Tracking
New forecast layout! Learn more

10-Day Weather Forecast

Advertisements
Track Severe Weather on mobile